createdAt,value
2022-09-23T00:01:26.831Z,4.03
2022-09-23T00:03:53.684Z,4.22
2022-09-23T00:06:23.100Z,3.85
2022-09-23T00:11:24.242Z,6.40
2022-09-23T00:13:53.703Z,4.45
2022-09-23T00:18:51.192Z,4.40
2022-09-23T00:21:19.352Z,4.75
2022-09-23T00:23:48.696Z,4.15
2022-09-23T00:26:19.099Z,4.50
2022-09-23T00:28:48.618Z,4.50
2022-09-23T00:33:59.929Z,4.38
2022-09-23T00:36:29.894Z,4.70
2022-09-23T00:38:59.284Z,4.63
2022-09-23T00:41:26.778Z,4.45
2022-09-23T00:43:57.518Z,4.25
2022-09-23T00:46:31.267Z,4.50
2022-09-23T00:49:23.781Z,4.55
2022-09-23T00:51:54.522Z,5.13
2022-09-23T00:54:22.277Z,4.50
2022-09-23T00:56:54.866Z,5.10
2022-09-23T00:59:24.486Z,4.20
2022-09-23T01:01:58.226Z,4.20
2022-09-23T01:04:29.572Z,3.88
2022-09-23T01:06:59.049Z,4.80
2022-09-23T01:09:30.557Z,4.60
2022-09-23T01:12:14.744Z,4.32
2022-09-23T01:15:00.474Z,4.93
2022-09-23T01:17:30.162Z,4.55
2022-09-23T01:20:06.304Z,3.85
2022-09-23T01:22:51.211Z,4.40
2022-09-23T01:25:42.200Z,3.90
2022-09-23T01:28:42.453Z,4.57
2022-09-23T01:31:35.874Z,4.20
2022-09-23T01:34:35.636Z,4.85
2022-09-23T01:37:16.021Z,4.90
2022-09-23T01:40:10.250Z,4.60
2022-09-23T01:43:16.078Z,4.38
2022-09-23T01:45:46.204Z,4.13
2022-09-23T01:48:36.361Z,4.93
2022-09-23T01:51:14.239Z,4.38
2022-09-23T01:53:55.955Z,4.38
2022-09-23T01:56:27.145Z,4.07
2022-09-23T01:59:14.651Z,4.25
2022-09-23T02:01:50.883Z,4.95
2022-09-23T02:04:25.426Z,4.57
2022-09-23T02:07:05.090Z,4.22
2022-09-23T02:10:00.720Z,4.32
2022-09-23T02:12:29.976Z,4.65
2022-09-23T02:15:02.901Z,3.95
2022-09-23T02:17:36.965Z,3.70
2022-09-23T02:20:06.077Z,4.13
2022-09-23T02:23:06.182Z,3.70
2022-09-23T02:25:45.992Z,3.55
2022-09-23T02:28:19.261Z,4.90
2022-09-23T02:30:56.192Z,3.83
2022-09-23T02:33:35.317Z,3.95
2022-09-23T02:36:12.820Z,4.00
2022-09-23T02:38:51.161Z,4.43
2022-09-23T02:41:32.655Z,3.60
2022-09-23T02:44:06.250Z,4.00
2022-09-23T02:46:33.788Z,5.05
2022-09-23T02:49:04.708Z,4.30
2022-09-23T02:51:35.032Z,4.18
2022-09-23T02:54:03.571Z,3.92
2022-09-23T02:56:30.258Z,4.03
2022-09-23T02:58:57.009Z,4.53
2022-09-23T03:01:47.682Z,4.47
2022-09-23T03:04:31.651Z,4.18
2022-09-23T03:07:06.353Z,4.38
2022-09-23T03:09:40.836Z,4.38
2022-09-23T03:12:36.146Z,3.78
2022-09-23T03:15:14.324Z,4.05
2022-09-23T03:18:03.664Z,4.40
2022-09-23T03:23:19.859Z,4.07
2022-09-23T03:25:49.975Z,3.75
2022-09-23T03:28:20.324Z,4.05
2022-09-23T03:30:47.144Z,4.10
2022-09-23T03:33:16.699Z,4.28
2022-09-23T03:36:09.441Z,4.60
2022-09-23T03:38:39.113Z,4.38
2022-09-23T03:41:05.850Z,4.50
2022-09-23T03:43:38.724Z,4.55
2022-09-23T03:46:25.394Z,3.97
2022-09-23T03:48:52.155Z,4.53
2022-09-23T03:51:23.869Z,3.97
2022-09-23T03:53:55.517Z,4.55
2022-09-23T03:56:23.607Z,4.72
2022-09-23T03:58:50.278Z,4.38
2022-09-23T04:01:19.649Z,3.63
2022-09-23T04:03:49.123Z,3.80
2022-09-23T04:08:51.619Z,3.42
2022-09-23T04:11:21.574Z,3.83
2022-09-23T04:13:53.619Z,3.97
2022-09-23T04:16:20.456Z,3.80
2022-09-23T04:18:47.129Z,4.20
2022-09-23T04:21:13.831Z,4.22
2022-09-23T04:23:42.901Z,4.00
2022-09-23T04:26:10.156Z,3.80
2022-09-23T04:28:36.897Z,3.53
2022-09-23T04:31:05.142Z,4.00
2022-09-23T04:33:38.919Z,5.90
2022-09-23T04:36:08.320Z,4.18
2022-09-23T04:38:35.032Z,4.15
2022-09-23T04:41:04.205Z,3.90
2022-09-23T04:43:35.734Z,4.32
2022-09-23T04:46:11.265Z,4.20
2022-09-23T04:48:41.808Z,3.58
2022-09-23T04:51:10.857Z,3.70
2022-09-23T04:53:39.275Z,3.60
2022-09-23T04:56:09.851Z,3.83
2022-09-23T04:58:36.837Z,3.70
2022-09-23T05:01:18.817Z,4.43
2022-09-23T05:03:46.368Z,3.47
2022-09-23T05:06:20.501Z,3.35
2022-09-23T05:08:54.859Z,3.85
2022-09-23T05:11:22.044Z,3.92
2022-09-23T05:13:50.639Z,3.72
2022-09-23T05:16:19.883Z,3.63
2022-09-23T05:18:48.316Z,4.03
2022-09-23T05:21:19.351Z,4.63
2022-09-23T05:23:56.564Z,4.07
2022-09-23T05:26:27.319Z,3.97
2022-09-23T05:28:59.206Z,4.43
2022-09-23T05:31:29.840Z,3.97
2022-09-23T05:33:58.830Z,4.43
2022-09-23T05:36:28.881Z,3.90
2022-09-23T05:38:56.579Z,4.15
2022-09-23T05:41:23.937Z,3.67
2022-09-23T05:43:54.213Z,4.70
2022-09-23T05:46:28.162Z,3.47
2022-09-23T05:49:06.754Z,3.40
2022-09-23T05:51:35.707Z,4.25
2022-09-23T05:54:04.314Z,4.45
2022-09-23T05:56:32.098Z,3.95
2022-09-23T05:59:00.657Z,4.28
2022-09-23T06:01:32.252Z,4.33
2022-09-23T06:04:00.068Z,4.38
2022-09-23T06:06:37.081Z,4.35
2022-09-23T06:09:06.621Z,4.75
2022-09-23T06:11:34.822Z,4.07
2022-09-23T06:14:02.517Z,4.25
2022-09-23T06:16:34.789Z,4.78
2022-09-23T06:19:07.816Z,4.22
2022-09-23T06:21:36.566Z,3.80
2022-09-23T06:24:07.013Z,5.55
2022-09-23T06:26:37.766Z,3.92
2022-09-23T06:29:14.597Z,4.60
2022-09-23T06:31:43.680Z,4.70
2022-09-23T06:34:13.412Z,5.03
2022-09-23T06:36:45.882Z,4.55
2022-09-23T06:39:15.832Z,4.40
2022-09-23T06:44:15.620Z,4.53
2022-09-23T06:46:44.808Z,4.03
2022-09-23T06:49:16.365Z,5.20
2022-09-23T06:51:45.569Z,4.43
2022-09-23T06:54:12.267Z,4.20
2022-09-23T06:56:39.993Z,4.32
2022-09-23T06:59:09.659Z,3.97
2022-09-23T07:04:03.199Z,4.30
2022-09-23T07:06:29.889Z,4.63
2022-09-23T07:08:59.072Z,5.13
2022-09-23T07:11:25.837Z,3.65
2022-09-23T07:13:52.497Z,4.65
2022-09-23T07:16:19.299Z,4.07
2022-09-23T07:18:46.398Z,5.03
2022-09-23T07:21:17.428Z,4.20
2022-09-23T07:23:48.194Z,4.47
2022-09-23T07:26:16.092Z,4.10
2022-09-23T07:28:45.588Z,4.03
2022-09-23T07:31:22.748Z,5.00
2022-09-23T07:33:59.433Z,5.45
2022-09-23T07:36:28.042Z,4.55
2022-09-23T07:39:00.957Z,4.45
2022-09-23T07:41:28.973Z,4.65
2022-09-23T07:44:01.450Z,3.85
2022-09-23T07:46:30.562Z,3.55
2022-09-23T07:48:57.869Z,2.78
2022-09-23T07:51:30.810Z,3.42
2022-09-23T07:54:00.115Z,3.67
2022-09-23T07:56:31.631Z,3.55
2022-09-23T07:59:04.588Z,3.20
2022-09-23T08:01:36.568Z,3.47
2022-09-23T08:04:13.487Z,3.97
2022-09-23T08:06:42.451Z,3.80
2022-09-23T08:09:09.415Z,3.85
2022-09-23T08:11:41.777Z,3.33
2022-09-23T08:14:13.636Z,6.13
2022-09-23T08:16:41.345Z,2.80
2022-09-23T08:19:10.946Z,2.95
2022-09-23T08:21:41.782Z,3.55
2022-09-23T08:24:15.828Z,5.90
2022-09-23T08:26:44.138Z,2.65
2022-09-23T08:29:14.703Z,2.80
2022-09-23T08:31:42.022Z,2.55
2022-09-23T08:34:09.150Z,3.65
2022-09-23T08:36:38.958Z,2.63
2022-09-23T08:39:06.482Z,3.10
2022-09-23T08:41:59.011Z,3.80
2022-09-23T08:44:51.380Z,3.42
2022-09-23T08:47:39.230Z,3.45
2022-09-23T08:50:11.437Z,3.30
2022-09-23T08:52:58.856Z,3.00
2022-09-23T08:55:38.963Z,2.55
2022-09-23T08:58:30.866Z,2.85
2022-09-23T09:01:16.326Z,2.80
2022-09-23T09:03:53.843Z,3.45
2022-09-23T09:06:36.222Z,2.17
2022-09-23T09:09:33.048Z,3.25
2022-09-23T09:12:22.763Z,2.22
2022-09-23T09:15:11.519Z,3.13
2022-09-23T09:17:44.050Z,3.28
2022-09-23T09:20:38.986Z,3.70
2022-09-23T09:23:23.321Z,2.63
2022-09-23T09:25:50.017Z,3.28
2022-09-23T09:28:47.599Z,3.55
2022-09-23T09:31:22.489Z,2.67
2022-09-23T09:34:06.249Z,2.90
2022-09-23T09:36:53.118Z,3.75
2022-09-23T09:39:22.930Z,3.38
2022-09-23T09:41:58.575Z,3.15
2022-09-23T09:44:25.297Z,3.38
2022-09-23T09:46:59.091Z,2.47
2022-09-23T09:49:40.675Z,2.70
2022-09-23T09:52:22.521Z,2.20
2022-09-23T09:54:52.951Z,3.00
2022-09-23T09:57:36.228Z,2.50
2022-09-23T10:00:25.379Z,2.80
2022-09-23T10:03:15.157Z,2.67
2022-09-23T10:05:47.627Z,2.50
2022-09-23T10:08:28.541Z,2.67
2022-09-23T10:11:02.746Z,2.90
2022-09-23T10:13:30.256Z,5.20
2022-09-23T10:15:59.020Z,2.83
2022-09-23T10:18:48.627Z,2.55
2022-09-23T10:21:25.472Z,2.53
2022-09-23T10:23:57.948Z,2.17
2022-09-23T10:26:31.321Z,2.55
2022-09-23T10:28:59.771Z,2.72
2022-09-23T10:31:34.790Z,2.38
2022-09-23T10:34:12.805Z,2.33
2022-09-23T10:36:44.316Z,2.30
2022-09-23T10:39:30.204Z,2.45
2022-09-23T10:42:22.471Z,2.40
2022-09-23T10:45:29.676Z,2.78
2022-09-23T10:48:05.397Z,2.05
2022-09-23T10:50:51.747Z,1.70
2022-09-23T10:53:29.987Z,2.28
2022-09-23T10:56:24.932Z,1.88
2022-09-23T10:59:07.518Z,2.22
2022-09-23T11:01:46.242Z,1.83
2022-09-23T11:04:39.862Z,2.97
2022-09-23T11:07:28.713Z,2.75
2022-09-23T11:10:28.945Z,2.08
2022-09-23T11:13:11.280Z,2.83
2022-09-23T11:15:48.680Z,2.75
2022-09-23T11:18:29.304Z,2.22
2022-09-23T11:21:01.868Z,2.70
2022-09-23T11:23:54.340Z,2.50
2022-09-23T11:26:33.334Z,2.97
2022-09-23T11:29:20.291Z,2.10
2022-09-23T11:32:22.564Z,2.45
2022-09-23T11:35:11.153Z,1.73
2022-09-23T11:37:46.203Z,1.80
2022-09-23T11:40:23.644Z,2.22
2022-09-23T11:43:15.809Z,1.77
2022-09-23T11:46:09.667Z,1.92
2022-09-23T11:48:59.101Z,1.30
2022-09-23T11:51:59.728Z,1.60
2022-09-23T11:54:34.976Z,1.00
2022-09-23T11:57:04.089Z,1.70
2022-09-23T12:02:59.061Z,1.40
2022-09-23T12:05:39.890Z,1.63
2022-09-23T12:08:22.344Z,1.90
2022-09-23T12:10:53.728Z,1.30
2022-09-23T12:13:31.778Z,1.13
2022-09-23T12:16:17.552Z,0.98
2022-09-23T12:18:59.228Z,0.93
2022-09-23T12:21:51.453Z,1.42
2022-09-23T12:24:19.277Z,1.10
2022-09-23T12:26:50.595Z,1.50
2022-09-23T12:29:20.106Z,0.93
2022-09-23T12:31:48.214Z,1.10
2022-09-23T12:34:33.482Z,0.90
2022-09-23T12:37:04.201Z,0.90
2022-09-23T12:39:35.497Z,1.25
2022-09-23T12:42:04.602Z,0.90
2022-09-23T12:44:36.849Z,1.20
2022-09-23T12:47:25.727Z,1.10
2022-09-23T12:50:01.169Z,1.40
2022-09-23T12:52:30.923Z,1.50
2022-09-23T12:55:11.680Z,1.13
2022-09-23T12:57:41.888Z,1.00
2022-09-23T13:00:22.878Z,1.05
2022-09-23T13:03:16.754Z,1.38
2022-09-23T13:06:09.148Z,1.40
2022-09-23T13:08:38.402Z,1.00
2022-09-23T13:11:26.728Z,1.27
2022-09-23T13:13:55.664Z,0.80
2022-09-23T13:18:54.522Z,0.80
2022-09-23T13:21:43.033Z,1.08
2022-09-23T13:24:14.960Z,1.25
2022-09-23T13:26:52.402Z,0.60
2022-09-23T13:29:35.161Z,0.80
2022-09-23T13:32:03.753Z,1.27
2022-09-23T13:34:38.573Z,1.30
2022-09-23T13:37:22.649Z,1.10
2022-09-23T13:39:50.211Z,1.00
2022-09-23T13:42:29.317Z,1.00
2022-09-23T13:45:01.148Z,1.40
2022-09-23T13:47:31.044Z,1.40
2022-09-23T13:49:57.972Z,1.33
2022-09-23T13:52:30.006Z,1.08
2022-09-23T13:54:59.033Z,1.13
2022-09-23T13:57:26.629Z,1.92
2022-09-23T13:59:53.670Z,1.75
2022-09-23T14:02:28.382Z,1.27
2022-09-23T14:05:21.507Z,1.30
2022-09-23T14:07:51.753Z,1.25
2022-09-23T14:10:21.281Z,1.33
2022-09-23T14:12:51.454Z,1.38
2022-09-23T14:15:22.813Z,1.58
2022-09-23T14:17:59.105Z,1.40
2022-09-23T14:20:25.959Z,1.17
2022-09-23T14:23:14.743Z,1.58
2022-09-23T14:25:44.702Z,1.58
2022-09-23T14:28:16.961Z,1.10
2022-09-23T14:30:46.252Z,1.17
2022-09-23T14:33:27.416Z,1.17
2022-09-23T14:36:07.007Z,1.30
2022-09-23T14:38:51.881Z,1.63
2022-09-23T14:41:26.093Z,0.88
2022-09-23T14:44:02.548Z,0.80
2022-09-23T14:46:31.370Z,0.85
2022-09-23T14:49:07.101Z,1.55
2022-09-23T14:51:46.302Z,0.70
2022-09-23T14:54:23.354Z,1.00
2022-09-23T14:56:50.566Z,0.98
2022-09-23T14:59:47.494Z,0.80
2022-09-23T15:02:35.473Z,0.80
2022-09-23T15:05:22.680Z,0.70
2022-09-23T15:07:53.008Z,1.00
2022-09-23T15:10:32.862Z,1.15
2022-09-23T15:13:09.754Z,0.80
2022-09-23T15:15:39.321Z,0.95
2022-09-23T15:18:13.699Z,0.80
2022-09-23T15:20:40.681Z,0.70
2022-09-23T15:23:39.049Z,0.80
2022-09-23T15:26:10.077Z,1.08
2022-09-23T15:28:37.008Z,1.02
2022-09-23T15:31:05.781Z,0.90
2022-09-23T15:36:02.184Z,0.77
2022-09-23T15:38:28.887Z,1.70
2022-09-23T15:40:58.683Z,2.78
2022-09-23T15:43:27.921Z,1.30
2022-09-23T15:46:06.862Z,1.00
2022-09-23T15:48:58.445Z,0.80
2022-09-23T15:51:28.197Z,0.80
2022-09-23T15:53:59.535Z,0.80
2022-09-23T15:56:29.039Z,0.52
2022-09-23T15:59:00.863Z,0.80
2022-09-23T16:01:34.148Z,0.50
2022-09-23T16:04:03.972Z,1.13
2022-09-23T16:06:35.300Z,2.13
2022-09-23T16:09:02.567Z,0.95
2022-09-23T16:11:31.854Z,0.63
2022-09-23T16:14:00.684Z,0.50
2022-09-23T16:19:00.361Z,0.88
2022-09-23T16:21:28.114Z,0.75
2022-09-23T16:23:59.293Z,0.90
2022-09-23T16:26:31.333Z,1.17
2022-09-23T16:28:58.800Z,1.52
2022-09-23T16:31:31.461Z,1.20
2022-09-23T16:34:02.217Z,1.02
2022-09-23T16:36:35.725Z,0.82
2022-09-23T16:39:07.780Z,1.05
2022-09-23T16:41:37.224Z,1.05
2022-09-23T16:44:06.342Z,0.70
2022-09-23T16:49:00.438Z,0.70
2022-09-23T16:51:29.446Z,1.00
2022-09-23T16:54:01.939Z,0.93
2022-09-23T16:56:33.378Z,0.95
2022-09-23T16:59:00.218Z,1.08
2022-09-23T17:01:47.147Z,1.02
2022-09-23T17:04:15.358Z,0.82
2022-09-23T17:06:52.322Z,1.35
2022-09-23T17:09:21.559Z,1.23
2022-09-23T17:14:29.475Z,1.60
2022-09-23T17:16:58.643Z,1.70
2022-09-23T17:21:55.649Z,1.52
2022-09-23T17:24:24.594Z,2.25
2022-09-23T17:26:53.668Z,1.83
2022-09-23T17:29:20.477Z,3.88
2022-09-23T17:31:47.267Z,1.80
2022-09-23T17:34:14.002Z,1.73
2022-09-23T17:36:40.806Z,1.50
2022-09-23T17:39:09.923Z,1.88
2022-09-23T17:44:08.081Z,1.42
2022-09-23T17:46:37.396Z,2.13
2022-09-23T17:49:06.146Z,1.48
2022-09-23T17:51:33.275Z,1.90
2022-09-23T17:54:02.227Z,2.42
2022-09-23T17:56:32.801Z,2.85
2022-09-23T17:59:01.622Z,2.47
2022-09-23T18:01:28.620Z,1.85
2022-09-23T18:03:56.494Z,2.17
2022-09-23T18:06:25.058Z,2.33
2022-09-23T18:08:52.123Z,3.58
2022-09-23T18:11:27.129Z,3.08
2022-09-23T18:13:58.750Z,3.33
2022-09-23T18:16:28.120Z,2.50
2022-09-23T18:19:01.460Z,2.95
2022-09-23T18:21:35.844Z,3.30
2022-09-23T18:26:53.996Z,2.88
2022-09-23T18:29:20.727Z,2.78
2022-09-23T18:31:49.337Z,3.22
2022-09-23T18:34:21.740Z,2.83
2022-09-23T18:36:48.529Z,2.40
2022-09-23T18:39:15.441Z,3.00
2022-09-23T18:41:42.389Z,3.00
2022-09-23T18:44:12.327Z,3.72
2022-09-23T18:46:39.003Z,2.90
2022-09-23T18:49:24.258Z,3.50
2022-09-23T18:51:51.851Z,4.38
2022-09-23T18:54:22.422Z,3.72
2022-09-23T18:56:53.072Z,4.10
2022-09-23T18:59:24.134Z,3.58
2022-09-23T19:01:51.490Z,3.90
2022-09-23T19:04:22.115Z,2.97
2022-09-23T19:06:51.480Z,4.10
2022-09-23T19:11:45.354Z,3.58
2022-09-23T19:14:12.837Z,3.60
2022-09-23T19:16:40.526Z,3.75
2022-09-23T19:19:09.951Z,4.43
2022-09-23T19:24:07.039Z,4.45
2022-09-23T19:26:43.363Z,3.88
2022-09-23T19:29:14.292Z,4.00
2022-09-23T19:31:42.003Z,3.92
2022-09-23T19:34:23.880Z,3.55
2022-09-23T19:36:53.423Z,3.80
2022-09-23T19:39:24.205Z,4.95
2022-09-23T19:41:59.793Z,4.03
2022-09-23T19:44:32.832Z,5.00
2022-09-23T19:47:01.745Z,4.50
2022-09-23T19:49:32.387Z,6.05
2022-09-23T19:52:01.655Z,6.07
2022-09-23T19:54:36.304Z,7.18
2022-09-23T19:57:05.027Z,7.38
2022-09-23T19:59:31.735Z,5.97
2022-09-23T20:02:00.714Z,6.63
2022-09-23T20:04:27.487Z,6.72
2022-09-23T20:06:59.485Z,6.75
2022-09-23T20:09:28.944Z,5.82
2022-09-23T20:12:02.463Z,6.35
2022-09-23T20:14:29.671Z,6.40
2022-09-23T20:16:56.357Z,6.53
2022-09-23T20:19:35.589Z,6.35
2022-09-23T20:22:32.397Z,6.63
2022-09-23T20:25:13.308Z,5.88
2022-09-23T20:27:40.383Z,5.88
2022-09-23T20:30:09.967Z,6.20
2022-09-23T20:32:43.956Z,6.30
2022-09-23T20:35:12.799Z,6.88
2022-09-23T20:37:42.125Z,7.30
2022-09-23T20:40:17.723Z,7.32
2022-09-23T20:42:44.410Z,6.57
2022-09-23T20:45:13.334Z,7.60
2022-09-23T20:47:46.016Z,8.23
2022-09-23T20:50:12.736Z,7.68
2022-09-23T20:52:39.425Z,8.82
2022-09-23T20:55:09.361Z,8.25
2022-09-23T20:57:37.246Z,8.40
2022-09-23T21:00:04.761Z,8.65
2022-09-23T21:02:34.216Z,9.07
2022-09-23T21:05:00.945Z,9.10
2022-09-23T21:07:32.378Z,9.30
2022-09-23T21:10:01.881Z,8.75
2022-09-23T21:12:28.610Z,9.00
2022-09-23T21:14:55.233Z,9.07
2022-09-23T21:17:21.926Z,10.15
2022-09-23T21:19:48.608Z,10.57
2022-09-23T21:22:18.217Z,10.50
2022-09-23T21:25:26.946Z,10.48
2022-09-23T21:27:40.594Z,8.73
2022-09-23T21:30:10.260Z,8.65
2022-09-23T21:32:36.965Z,8.50
2022-09-23T21:35:10.276Z,8.05
2022-09-23T21:37:37.188Z,8.13
2022-09-23T21:40:35.662Z,8.35
2022-09-23T21:43:02.357Z,8.15
2022-09-23T21:45:31.724Z,8.23
2022-09-23T21:50:29.478Z,8.05
2022-09-23T21:52:58.293Z,7.70
2022-09-23T21:55:27.739Z,8.18
2022-09-23T22:00:20.969Z,7.30
2022-09-23T22:02:47.672Z,6.95
2022-09-23T22:05:16.572Z,7.95
2022-09-23T22:07:50.664Z,7.43
2022-09-23T22:10:19.539Z,7.55
2022-09-23T22:12:48.710Z,6.80
2022-09-23T22:15:20.405Z,6.38
2022-09-23T22:17:50.042Z,6.63
2022-09-23T22:20:17.006Z,7.05
2022-09-23T22:22:46.139Z,6.68
2022-09-23T22:25:12.822Z,7.10
2022-09-23T22:27:59.457Z,7.05
2022-09-23T22:30:47.322Z,6.80
2022-09-23T22:33:19.576Z,6.90
2022-09-23T22:35:46.468Z,7.63
2022-09-23T22:38:13.110Z,7.20
2022-09-23T22:40:43.002Z,7.03
2022-09-23T22:43:28.135Z,6.82
2022-09-23T22:45:54.834Z,6.88
2022-09-23T22:48:21.603Z,7.05
2022-09-23T22:50:48.318Z,7.00
2022-09-23T22:53:17.660Z,7.20
2022-09-23T22:55:44.336Z,6.93
2022-09-23T22:58:31.069Z,6.53
2022-09-23T23:00:58.278Z,6.68
2022-09-23T23:03:26.722Z,7.18
2022-09-23T23:05:57.471Z,7.20
2022-09-23T23:08:30.612Z,7.20
2022-09-23T23:11:02.433Z,7.38
2022-09-23T23:13:33.012Z,5.85
2022-09-23T23:16:04.871Z,7.25
2022-09-23T23:18:35.561Z,6.72
2022-09-23T23:21:15.361Z,6.25
2022-09-23T23:23:44.593Z,6.65
2022-09-23T23:26:14.711Z,6.47
2022-09-23T23:28:46.686Z,6.78
2022-09-23T23:31:17.747Z,6.03
2022-09-23T23:33:45.400Z,6.03
2022-09-23T23:36:16.711Z,5.50
2022-09-23T23:38:47.675Z,5.65
2022-09-23T23:41:20.202Z,5.47
2022-09-23T23:43:57.028Z,5.63
2022-09-23T23:46:30.082Z,5.78
2022-09-23T23:48:57.546Z,6.47
2022-09-23T23:51:27.962Z,5.88
2022-09-23T23:53:55.232Z,5.80
2022-09-23T23:56:28.240Z,6.03
2022-09-23T23:58:58.232Z,6.00
